AirNav   TITAN Aviation Fuels
 
 1593 users online  

AZ05 Lakeside Airpark
Gila Bend, Arizona, USA

GOING TO GILA BEND?


FAA INFORMATION EFFECTIVE 06 OCTOBER 2022

Location

FAA Identifier: AZ05
Lat/Long: 33-06-45.0000N 112-39-42.0000W
33-06.750000N 112-39.700000W
33.1125000,-112.6616667
(estimated)
Elevation: 780 ft. / 238 m (estimated)
Variation: 12E (1995)
From city: 9 miles N of GILA BEND, AZ
Time zone: UTC -7 (year round; does not observe DST)
Zip code: 85337

Airport Operations

Airport use: Private use. Permission required prior to landing
Activation date: 02/2017
Control tower: no
ARTCC: ALBUQUERQUE CENTER
FSS: PRESCOTT FLIGHT SERVICE STATION
Attendance: 
Segmented circle: no

Airport Communications

WX AWOS-3 at BXK (19 nm N): 119.625 (623-386-7627)

Nearby radio navigation aids

VOR radial/distance  VOR name  Freq  Var
GBNr350/9.4GILA BEND VORTAC116.6014E
BXKr144/22.0BUCKEYE VORTAC110.6014E
PXRr229/39.7PHOENIX VORTAC115.6012E

Airport Services

Runway Information

Runway 16/34

Dimensions: 2750 x 36 ft. / 838 x 11 m
Surface: asphalt
RUNWAY 16  RUNWAY 34
Traffic pattern: leftleft

Airport Ownership and Management from official FAA records

Ownership: Privately-owned
Owner: LAKESIDE AIRPARK LLC
36444 S. HWY 85, BOX 12
BUCKEYE, AZ 85326
Phone 480-236-7977
Manager: LUIGI TALARICO
11051 E. BECK LANE
SCOTTSDALE, AZ 85255
Phone 480-236-7977
OTHER CONTACT DAVID WILLIAMSON 520-547-9302; DAVIDW@FAIRFIELDHOME.COM

Airport Operational Statistics

Aircraft based on the field: 1
Single engine airplanes: 1
    

Additional Remarks

FOR CD CTC PHOENIX APCH AT 602-306-2565.

Instrument Procedures

There are no published instrument procedures at AZ05.

Some nearby airports with instrument procedures:

KGYR - Phoenix Goodyear Airport (24 nm NE)
KLUF - Luke Air Force Base (29 nm NE)
KGEU - Glendale Municipal Airport (31 nm NE)
KPHX - Phoenix Sky Harbor International Airport (38 nm NE)
P19 - Stellar Airpark (39 nm E)
 
Loc | Ops | Rwys | IFR | FBO | Links
Com | Nav | Svcs | Stats | Notes
Aerial photo
WARNING: Photo may not be current or correct
Aerial photo of AZ05 (Lakeside Airpark)
Photo by Steve Hampton
Photo taken 01-Aug-2020
looking south.

Do you have a better or more recent aerial photo of Lakeside Airpark that you would like to share? If so, please send us your photo.

 
Airport distance calculator
Flying to Lakeside Airpark? Find the distance to fly.

From to AZ05

Sunrise and sunset
Times for 07-Oct-2022
 Local
(UTC-7)
 Zulu
(UTC)
Morning civil twilight06:0513:05
Sunrise06:3013:30
Sunset18:0701:07
Evening civil twilight18:3201:32

Current date and time
Zulu (UTC)  07-Oct-2022 16:25:12
Local (UTC-7)  07-Oct-2022 09:25:12
 
METAR
KGXF 
14nm S 
071555Z 06010KT 10SM FEW120 FEW160 SCT200 SCT250 26/12 A3006 RMK AO2A ACC DSNT SW-W AND N SLP168 CONTRAILS T02630120 FZRANO $
KBXK 
19nm N 
071555Z AUTO 08013G19KT 10SM CLR 27/10 A3008 RMK A01
KGYR 
23nm NE 
071547Z 07006KT 10SM FEW150 SCT250 26/12 A3010
TAF
KLUF 
28nm NE 
062340Z 0620/0802 06015G25KT 9999 VCSH FEW120 SCT150 520007 QNH2994INS TEMPO 0700/0701 VRB20G35KT 8000 -TSRA SCT120CB BKN150 TEMPO 0701/0702 VRB15G25KT 8000 -TSRA SCT120CB BKN150 BECMG 0702/0703 VRB06KT 9999 NSW SCT150 SCT180 QNH2998INS BECMG 0801/0802 06015G25KT 9000 -SHRA VCTS SCT080CB BKN100 QNH2999INS TX34/0623Z TN21/0713Z
NOTAMs
Click for the latest NOTAMs
NOTAMs are issued by the DoD/FAA and will open in a separate window not controlled by AirNav.

 

 
 

Would you like to see your business listed on this page?

 If your business provides an interesting product or service to pilots, flight crews, aircraft, or users of the Lakeside Airpark, you should consider listing it here.  To start the listing process, click on the button below
 
Add a business
 

Other Pages about Lakeside Airpark

Update a link
 
Copyright © AirNav, LLC. All rights reserved. Privacy Policy  Contact